createdAt,value
2022-12-16T00:01:07.085Z,99416.03
2022-12-16T00:03:36.789Z,99412.59
2022-12-16T00:06:04.948Z,99420.03
2022-12-16T00:08:36.830Z,99416.97
2022-12-16T00:11:05.594Z,99422.59
2022-12-16T00:13:34.754Z,99421.22
2022-12-16T00:16:06.149Z,99426.56
2022-12-16T00:18:33.659Z,99421.06
2022-12-16T00:21:02.538Z,99425.19
2022-12-16T00:23:30.861Z,99425.06
2022-12-16T00:25:58.770Z,99409.28
2022-12-16T00:28:26.356Z,99420.56
2022-12-16T00:30:55.103Z,99417.78
2022-12-16T00:33:24.441Z,99403.53
2022-12-16T00:35:52.384Z,99413.56
2022-12-16T00:38:23.796Z,99399.97
2022-12-16T00:40:52.029Z,99403.78
2022-12-16T00:43:20.613Z,99399.50
2022-12-16T00:45:48.707Z,99398.00
2022-12-16T00:48:16.921Z,99400.25
2022-12-16T00:50:47.087Z,99401.41
2022-12-16T00:53:14.515Z,99396.94
2022-12-16T00:55:43.277Z,99398.91
2022-12-16T00:58:10.731Z,99410.19
2022-12-16T01:00:38.583Z,99404.94
2022-12-16T01:03:06.105Z,99404.28
2022-12-16T01:05:33.641Z,99407.22
2022-12-16T01:08:01.119Z,99404.38
2022-12-16T01:10:28.523Z,99406.22
2022-12-16T01:12:57.304Z,99414.56
2022-12-16T01:15:24.759Z,99418.28
2022-12-16T01:17:52.186Z,99425.63
2022-12-16T01:20:19.663Z,99429.72
2022-12-16T01:22:47.336Z,99421.63
2022-12-16T01:25:15.344Z,99431.66
2022-12-16T01:27:42.767Z,99428.03
2022-12-16T01:30:12.990Z,99438.72
2022-12-16T01:32:40.436Z,99445.47
2022-12-16T01:35:29.429Z,99434.69
2022-12-16T01:37:56.202Z,99441.06
2022-12-16T01:40:25.587Z,99428.81
2022-12-16T01:42:53.027Z,99437.91
2022-12-16T01:45:31.484Z,99436.53
2022-12-16T01:48:00.794Z,99439.38
2022-12-16T01:50:29.879Z,99448.56
2022-12-16T01:52:58.924Z,99437.84
2022-12-16T01:55:29.312Z,99440.38
2022-12-16T01:57:59.356Z,99439.22
2022-12-16T02:00:28.144Z,99432.94
2022-12-16T02:02:56.548Z,99437.19
2022-12-16T02:05:24.369Z,99438.59
2022-12-16T02:07:56.437Z,99439.41
2022-12-16T02:10:40.340Z,99446.78
2022-12-16T02:13:17.998Z,99452.34
2022-12-16T02:15:51.839Z,99444.31
2022-12-16T02:18:24.806Z,99437.94
2022-12-16T02:21:16.915Z,99444.59
2022-12-16T02:24:02.185Z,99444.97
2022-12-16T02:26:49.718Z,99445.72
2022-12-16T02:29:41.691Z,99438.66
2022-12-16T02:32:15.763Z,99438.13
2022-12-16T02:34:50.329Z,99440.47
2022-12-16T02:37:23.553Z,99438.03
2022-12-16T02:39:54.479Z,99441.78
2022-12-16T02:42:27.642Z,99439.22
2022-12-16T02:45:00.555Z,99441.28
2022-12-16T02:47:29.343Z,99432.72
2022-12-16T02:49:57.380Z,99437.81
2022-12-16T02:52:26.547Z,99444.28
2022-12-16T02:54:56.625Z,99448.00
2022-12-16T02:57:43.531Z,99440.44
2022-12-16T03:00:13.641Z,99437.53
2022-12-16T03:02:49.116Z,99447.28
2022-12-16T03:05:21.565Z,99441.97
2022-12-16T03:07:49.912Z,99450.84
2022-12-16T03:10:20.868Z,99461.59
2022-12-16T03:12:48.294Z,99453.22
2022-12-16T03:15:20.343Z,99456.63
2022-12-16T03:17:50.262Z,99460.81
2022-12-16T03:20:19.550Z,99456.44
2022-12-16T03:22:48.809Z,99454.53
2022-12-16T03:25:16.682Z,99452.56
2022-12-16T03:27:50.412Z,99454.66
2022-12-16T03:30:19.174Z,99447.69
2022-12-16T03:32:51.557Z,99456.50
2022-12-16T03:35:21.776Z,99447.00
2022-12-16T03:37:51.438Z,99458.28
2022-12-16T03:40:21.441Z,99462.25
2022-12-16T03:42:49.747Z,99458.22
2022-12-16T03:45:20.399Z,99459.69
2022-12-16T03:47:51.736Z,99465.16
2022-12-16T03:50:21.057Z,99462.88
2022-12-16T03:52:48.479Z,99470.00
2022-12-16T03:55:16.126Z,99466.94
2022-12-16T03:57:43.542Z,99480.16
2022-12-16T04:00:12.500Z,99473.44
2022-12-16T04:02:40.322Z,99476.09
2022-12-16T04:05:10.082Z,99484.41
2022-12-16T04:07:37.553Z,99474.88
2022-12-16T04:10:06.119Z,99479.03
2022-12-16T04:12:51.400Z,99468.69
2022-12-16T04:15:32.977Z,99476.19
2022-12-16T04:18:18.011Z,99473.06
2022-12-16T04:21:06.587Z,99475.91
2022-12-16T04:23:52.285Z,99483.19
2022-12-16T04:26:19.776Z,99482.28
2022-12-16T04:28:47.183Z,99487.13
2022-12-16T04:31:14.753Z,99493.53
2022-12-16T04:33:59.730Z,99501.50
2022-12-16T04:36:46.363Z,99513.28
2022-12-16T04:39:31.256Z,99506.69
2022-12-16T04:42:16.233Z,99508.78
2022-12-16T04:45:01.251Z,99517.69
2022-12-16T04:47:45.974Z,99515.53
2022-12-16T04:50:31.023Z,99517.97
2022-12-16T04:53:17.173Z,99514.63
2022-12-16T04:56:04.346Z,99511.03
2022-12-16T04:58:50.257Z,99505.75
2022-12-16T05:01:35.676Z,99514.94
2022-12-16T05:04:20.671Z,99524.84
2022-12-16T05:07:05.598Z,99524.31
2022-12-16T05:09:52.267Z,99520.88
2022-12-16T05:12:37.017Z,99518.25
2022-12-16T05:15:22.257Z,99515.72
2022-12-16T05:18:07.319Z,99517.75
2022-12-16T05:20:52.622Z,99522.63
2022-12-16T05:23:37.594Z,99520.94
2022-12-16T05:26:24.047Z,99524.94
2022-12-16T05:29:08.730Z,99531.81
2022-12-16T05:31:53.674Z,99526.34
2022-12-16T05:34:38.724Z,99522.50
2022-12-16T05:37:24.064Z,99528.94
2022-12-16T05:40:08.763Z,99543.16
2022-12-16T05:42:55.295Z,99538.84
2022-12-16T05:45:40.441Z,99551.69
2022-12-16T05:48:25.656Z,99548.34
2022-12-16T05:51:10.777Z,99545.28
2022-12-16T05:53:55.753Z,99556.66
2022-12-16T05:56:40.657Z,99556.28
2022-12-16T05:59:27.116Z,99553.06
2022-12-16T06:02:11.973Z,99561.66
2022-12-16T06:04:56.831Z,99568.09
2022-12-16T06:07:41.867Z,99573.91
2022-12-16T06:10:27.676Z,99565.69
2022-12-16T06:13:12.302Z,99580.94
2022-12-16T06:16:06.652Z,99579.16
2022-12-16T06:18:53.471Z,99585.22
2022-12-16T06:21:38.493Z,99591.94
2022-12-16T06:24:23.740Z,99602.88
2022-12-16T06:27:08.587Z,99606.16
2022-12-16T06:29:53.711Z,99611.50
2022-12-16T06:32:40.384Z,99616.50
2022-12-16T06:35:25.991Z,99615.03
2022-12-16T06:38:10.747Z,99622.44
2022-12-16T06:40:56.116Z,99629.59
2022-12-16T06:43:41.164Z,99618.75
2022-12-16T06:46:26.172Z,99628.16
2022-12-16T06:49:12.663Z,99626.66
2022-12-16T06:51:57.666Z,99632.47
2022-12-16T06:54:42.868Z,99634.09
2022-12-16T06:57:27.564Z,99640.06
2022-12-16T07:00:12.571Z,99640.78
2022-12-16T07:02:57.902Z,99645.63
2022-12-16T07:05:44.327Z,99647.75
2022-12-16T07:08:29.276Z,99656.03
2022-12-16T07:11:17.040Z,99656.72
2022-12-16T07:14:02.805Z,99662.53
2022-12-16T07:16:48.177Z,99658.63
2022-12-16T07:19:34.248Z,99661.28
2022-12-16T07:22:20.651Z,99672.03
2022-12-16T07:25:05.608Z,99674.84
2022-12-16T07:27:50.517Z,99683.38
2022-12-16T07:30:35.780Z,99680.91
2022-12-16T07:33:20.691Z,99685.13
2022-12-16T07:36:05.894Z,99690.22
2022-12-16T07:38:52.177Z,99693.78
2022-12-16T07:41:37.381Z,99702.41
2022-12-16T07:44:22.900Z,99708.44
2022-12-16T07:47:21.095Z,99723.91
2022-12-16T07:50:06.292Z,99727.97
2022-12-16T07:52:51.115Z,99733.41
2022-12-16T07:55:37.803Z,99743.63
2022-12-16T07:58:22.584Z,99754.06
2022-12-16T08:01:09.623Z,99764.13
2022-12-16T08:03:54.953Z,99764.72
2022-12-16T08:06:41.052Z,99772.50
2022-12-16T08:09:25.942Z,99767.50
2022-12-16T08:12:12.148Z,99775.59
2022-12-16T08:15:02.522Z,99774.88
2022-12-16T08:17:47.807Z,99778.69
2022-12-16T08:20:32.196Z,99788.97
2022-12-16T08:23:16.979Z,99786.94
2022-12-16T08:26:01.925Z,99798.13
2022-12-16T08:28:48.635Z,99798.06
2022-12-16T08:31:33.904Z,99798.22
2022-12-16T08:34:18.943Z,99805.28
2022-12-16T08:37:15.562Z,99800.50
2022-12-16T08:40:26.081Z,99806.63
2022-12-16T08:43:10.889Z,99800.88
2022-12-16T08:45:58.883Z,99806.19
2022-12-16T08:48:43.740Z,99809.75
2022-12-16T08:51:29.137Z,99810.81
2022-12-16T08:54:14.107Z,99816.28
2022-12-16T08:56:59.669Z,99816.38
2022-12-16T08:59:44.899Z,99823.94
2022-12-16T09:02:31.484Z,99819.50
2022-12-16T09:05:16.603Z,99832.63
2022-12-16T09:08:01.715Z,99828.38
2022-12-16T09:10:47.003Z,99842.16
2022-12-16T09:13:33.854Z,99839.75
2022-12-16T09:16:19.954Z,99837.22
2022-12-16T09:19:06.547Z,99845.19
2022-12-16T09:21:51.833Z,99839.75
2022-12-16T09:24:37.104Z,99848.97
2022-12-16T09:27:22.406Z,99847.84
2022-12-16T09:30:07.477Z,99847.66
2022-12-16T09:32:52.911Z,99845.81
2022-12-16T09:35:39.159Z,99846.56
2022-12-16T09:38:24.147Z,99855.81
2022-12-16T09:41:08.971Z,99847.53
2022-12-16T09:44:02.476Z,99856.09
2022-12-16T09:46:52.421Z,99855.53
2022-12-16T09:49:42.945Z,99865.75
2022-12-16T09:52:33.728Z,99858.66
2022-12-16T09:55:19.308Z,99859.56
2022-12-16T09:58:04.983Z,99864.53
2022-12-16T10:00:49.681Z,99869.59
2022-12-16T10:03:40.673Z,99873.47
2022-12-16T10:06:30.120Z,99874.78
2022-12-16T10:09:17.887Z,99875.47
2022-12-16T10:12:10.682Z,99874.22
2022-12-16T10:15:01.261Z,99871.50
2022-12-16T10:17:46.079Z,99873.41
2022-12-16T10:20:43.663Z,99871.50
2022-12-16T10:23:33.260Z,99878.47
2022-12-16T10:26:23.720Z,99879.56
2022-12-16T10:29:12.480Z,99873.63
2022-12-16T10:31:58.049Z,99885.00
2022-12-16T10:34:47.379Z,99884.47
2022-12-16T10:37:35.236Z,99882.19
2022-12-16T10:40:36.026Z,99877.81
2022-12-16T10:43:25.524Z,99876.53
2022-12-16T10:46:20.363Z,99870.75
2022-12-16T10:49:05.509Z,99877.00
2022-12-16T10:51:50.483Z,99888.31
2022-12-16T10:54:51.746Z,99883.50
2022-12-16T10:57:45.643Z,99871.84
2022-12-16T11:00:34.817Z,99878.88
2022-12-16T11:03:39.074Z,99883.50
2022-12-16T11:06:25.195Z,99889.09
2022-12-16T11:09:10.228Z,99885.00
2022-12-16T11:11:55.519Z,99892.88
2022-12-16T11:15:05.405Z,99888.69
2022-12-16T11:17:49.485Z,99893.31
2022-12-16T11:20:36.905Z,99898.00
2022-12-16T11:23:38.635Z,99894.56
2022-12-16T11:26:34.572Z,99889.97
2022-12-16T11:29:23.832Z,99893.94
2022-12-16T11:32:13.532Z,99898.34
2022-12-16T11:35:02.499Z,99887.09
2022-12-16T11:37:47.768Z,99887.78
2022-12-16T11:40:35.033Z,99889.50
2022-12-16T11:43:21.443Z,99887.66
2022-12-16T11:46:07.641Z,99888.75
2022-12-16T11:48:57.087Z,99890.81
2022-12-16T11:51:44.795Z,99893.22
2022-12-16T11:54:34.655Z,99887.13
2022-12-16T11:57:21.819Z,99889.91
2022-12-16T12:00:11.120Z,99896.69
2022-12-16T12:03:00.792Z,99896.94
2022-12-16T12:05:47.782Z,99896.22
2022-12-16T12:08:39.024Z,99896.84
2022-12-16T12:11:29.352Z,99906.72
2022-12-16T12:14:23.860Z,99911.59
2022-12-16T12:17:19.907Z,99906.00
2022-12-16T12:20:14.953Z,99903.25
2022-12-16T12:23:00.387Z,99913.00
2022-12-16T12:26:01.529Z,99912.06
2022-12-16T12:28:58.411Z,99914.09
2022-12-16T12:31:51.119Z,99906.38
2022-12-16T12:34:41.604Z,99918.88
2022-12-16T12:37:28.899Z,99914.59
2022-12-16T12:40:22.345Z,99925.88
2022-12-16T12:43:12.163Z,99918.94
2022-12-16T12:46:08.820Z,99923.81
2022-12-16T12:49:00.634Z,99926.72
2022-12-16T12:51:49.845Z,99932.44
2022-12-16T12:54:41.741Z,99929.09
2022-12-16T12:57:28.257Z,99929.72
2022-12-16T13:00:17.603Z,99937.75
2022-12-16T13:03:06.464Z,99932.56
2022-12-16T13:05:53.821Z,99931.13
2022-12-16T13:09:01.587Z,99936.97
2022-12-16T13:11:46.824Z,99944.22
2022-12-16T13:15:01.518Z,99943.16
2022-12-16T13:17:48.124Z,99942.66
2022-12-16T13:20:55.355Z,99940.88
2022-12-16T13:23:47.475Z,99951.47
2022-12-16T13:26:34.260Z,99949.47
2022-12-16T13:29:25.327Z,99947.69
2022-12-16T13:32:19.065Z,99951.47
2022-12-16T13:35:17.491Z,99959.56
2022-12-16T13:38:10.164Z,99958.88
2022-12-16T13:41:06.748Z,99957.78
2022-12-16T13:44:05.369Z,99961.47
2022-12-16T13:47:02.366Z,99962.88
2022-12-16T13:49:59.914Z,99960.53
2022-12-16T13:52:54.444Z,99956.72
2022-12-16T13:55:45.745Z,99965.72
2022-12-16T13:58:38.227Z,99975.69
2022-12-16T14:01:28.680Z,99977.69
2022-12-16T14:04:14.234Z,99985.06
2022-12-16T14:07:02.303Z,99983.72
2022-12-16T14:09:55.977Z,99980.59
2022-12-16T14:13:08.471Z,99987.56
2022-12-16T14:15:59.403Z,99997.09
2022-12-16T14:18:51.243Z,100000.34
2022-12-16T14:21:39.548Z,100000.06
2022-12-16T14:24:39.917Z,100010.63
2022-12-16T14:27:31.806Z,100013.38
2022-12-16T14:30:17.015Z,100022.94
2022-12-16T14:33:02.190Z,100027.47
2022-12-16T14:35:46.842Z,100020.22
2022-12-16T14:38:39.603Z,100034.25
2022-12-16T14:41:24.629Z,100033.84
2022-12-16T14:44:11.445Z,100039.69
2022-12-16T14:46:56.201Z,100041.66
2022-12-16T14:49:42.776Z,100057.44
2022-12-16T14:52:36.283Z,100052.81
2022-12-16T14:55:30.912Z,100057.88
2022-12-16T14:58:24.683Z,100052.34
2022-12-16T15:01:15.834Z,100076.19
2022-12-16T15:04:03.194Z,100070.41
2022-12-16T15:06:50.603Z,100071.28
2022-12-16T15:09:41.684Z,100072.59
2022-12-16T15:12:27.808Z,100067.91
2022-12-16T15:15:13.636Z,100063.59
2022-12-16T15:18:08.595Z,100073.59
2022-12-16T15:21:01.862Z,100084.81
2022-12-16T15:23:49.683Z,100095.84
2022-12-16T15:26:35.902Z,100087.19
2022-12-16T15:29:21.447Z,100089.06
2022-12-16T15:32:06.514Z,100089.38
2022-12-16T15:34:58.039Z,100097.44
2022-12-16T15:37:47.468Z,100098.47
2022-12-16T15:40:42.326Z,100115.19
2022-12-16T15:43:41.404Z,100117.94
2022-12-16T15:46:36.464Z,100125.25
2022-12-16T15:49:22.093Z,100125.06
2022-12-16T15:52:09.984Z,100132.06
2022-12-16T15:55:09.122Z,100129.88
2022-12-16T15:57:55.047Z,100140.75
2022-12-16T16:00:42.541Z,100136.63
2022-12-16T16:03:38.692Z,100142.66
2022-12-16T16:06:33.527Z,100147.63
2022-12-16T16:09:20.102Z,100139.91
2022-12-16T16:12:05.120Z,100151.16
2022-12-16T16:14:49.991Z,100150.97
2022-12-16T16:17:40.113Z,100158.63
2022-12-16T16:20:28.039Z,100168.81
2022-12-16T16:23:09.480Z,100170.22
2022-12-16T16:26:00.531Z,100177.28
2022-12-16T16:28:48.541Z,100164.03
2022-12-16T16:31:33.381Z,100172.09
2022-12-16T16:34:18.296Z,100175.06
2022-12-16T16:37:03.448Z,100175.34
2022-12-16T16:39:48.747Z,100186.09
2022-12-16T16:42:35.280Z,100184.47
2022-12-16T16:45:20.272Z,100186.56
2022-12-16T16:48:01.866Z,100196.63
2022-12-16T16:50:46.827Z,100188.31
2022-12-16T16:53:34.065Z,100178.22
2022-12-16T16:56:20.297Z,100188.69
2022-12-16T16:59:06.950Z,100175.25
2022-12-16T17:01:51.890Z,100187.63
2022-12-16T17:04:37.015Z,100193.06
2022-12-16T17:07:22.184Z,100192.50
2022-12-16T17:10:07.418Z,100195.03
2022-12-16T17:12:52.232Z,100199.91
2022-12-16T17:15:40.340Z,100210.91
2022-12-16T17:18:25.909Z,100205.03
2022-12-16T17:21:11.556Z,100200.75
2022-12-16T17:23:57.188Z,100210.06
2022-12-16T17:26:42.746Z,100216.06
2022-12-16T17:29:39.249Z,100220.06
2022-12-16T17:32:25.903Z,100224.88
2022-12-16T17:35:11.178Z,100217.09
2022-12-16T17:37:56.718Z,100234.34
2022-12-16T17:40:41.828Z,100238.97
2022-12-16T17:43:27.055Z,100235.97
2022-12-16T17:46:16.699Z,100233.91
2022-12-16T17:49:03.133Z,100249.28
2022-12-16T17:51:48.307Z,100246.28
2022-12-16T17:54:33.675Z,100258.91
2022-12-16T17:57:18.622Z,100266.72
2022-12-16T18:00:03.905Z,100259.16
2022-12-16T18:05:07.938Z,100270.59
2022-12-16T18:07:53.006Z,100275.56
2022-12-16T18:10:38.148Z,100276.16
2022-12-16T18:13:22.971Z,100279.81
2022-12-16T18:16:10.782Z,100283.47
2022-12-16T18:18:55.973Z,100287.91
2022-12-16T18:21:42.457Z,100288.78
2022-12-16T18:24:28.067Z,100307.75
2022-12-16T18:27:12.980Z,100300.81
2022-12-16T18:29:58.374Z,100300.72
2022-12-16T18:32:43.490Z,100307.94
2022-12-16T18:35:28.380Z,100313.53
2022-12-16T18:38:16.532Z,100308.53
2022-12-16T18:41:04.999Z,100310.69
2022-12-16T18:43:49.884Z,100316.69
2022-12-16T18:46:34.603Z,100312.13
2022-12-16T18:49:19.490Z,100317.13
2022-12-16T18:52:04.520Z,100325.91
2022-12-16T18:54:51.096Z,100312.31
2022-12-16T18:57:39.632Z,100319.09
2022-12-16T19:00:26.520Z,100336.13
2022-12-16T19:03:11.417Z,100332.81
2022-12-16T19:05:56.599Z,100341.44
2022-12-16T19:08:41.596Z,100346.38
2022-12-16T19:11:42.670Z,100344.25
2022-12-16T19:14:27.501Z,100341.53
2022-12-16T19:17:12.472Z,100350.00
2022-12-16T19:19:57.531Z,100338.22
2022-12-16T19:22:42.490Z,100342.34
2022-12-16T19:25:28.024Z,100349.47
2022-12-16T19:28:14.674Z,100349.94
2022-12-16T19:30:59.805Z,100360.56
2022-12-16T19:33:44.863Z,100357.00
2022-12-16T19:36:30.324Z,100352.44
2022-12-16T19:39:15.572Z,100360.56
2022-12-16T19:42:00.589Z,100361.84
2022-12-16T19:44:47.221Z,100362.94
2022-12-16T19:47:31.957Z,100367.94
2022-12-16T19:50:17.158Z,100371.03
2022-12-16T19:53:02.113Z,100382.69
2022-12-16T19:55:46.828Z,100381.16
2022-12-16T19:58:37.702Z,100392.16
2022-12-16T20:01:27.984Z,100386.34
2022-12-16T20:04:13.804Z,100386.13
2022-12-16T20:06:58.930Z,100389.34
2022-12-16T20:09:46.390Z,100392.75
2022-12-16T20:12:31.471Z,100398.59
2022-12-16T20:15:16.529Z,100408.06
2022-12-16T20:18:03.187Z,100403.94
2022-12-16T20:20:47.874Z,100410.78
2022-12-16T20:23:32.894Z,100400.69
2022-12-16T20:26:19.487Z,100404.31
2022-12-16T20:29:04.504Z,100408.44
2022-12-16T20:31:50.294Z,100410.16
2022-12-16T20:34:36.747Z,100420.38
2022-12-16T20:37:22.201Z,100422.00
2022-12-16T20:40:07.177Z,100420.22
2022-12-16T20:42:53.347Z,100419.16
2022-12-16T20:45:39.052Z,100434.53
2022-12-16T20:48:24.483Z,100433.81
2022-12-16T20:51:16.806Z,100443.66
2022-12-16T20:54:06.467Z,100446.78
2022-12-16T20:56:51.916Z,100453.09
2022-12-16T20:59:38.159Z,100458.31
2022-12-16T21:05:29.061Z,100455.41
2022-12-16T21:08:15.735Z,100458.00
2022-12-16T21:11:15.428Z,100465.34
2022-12-16T21:14:02.533Z,100466.81
2022-12-16T21:16:48.852Z,100469.09
2022-12-16T21:19:34.228Z,100467.22
2022-12-16T21:22:19.147Z,100461.31
2022-12-16T21:25:05.515Z,100471.75
2022-12-16T21:27:50.872Z,100479.84
2022-12-16T21:30:41.248Z,100467.03
2022-12-16T21:33:34.406Z,100478.03
2022-12-16T21:36:19.673Z,100489.13
2022-12-16T21:39:04.747Z,100484.00
2022-12-16T21:41:59.864Z,100485.34
2022-12-16T21:44:44.823Z,100492.25
2022-12-16T21:47:29.939Z,100488.31
2022-12-16T21:50:15.095Z,100495.59
2022-12-16T21:53:00.132Z,100497.28
2022-12-16T21:55:50.545Z,100487.63
2022-12-16T21:58:37.387Z,100497.59
2022-12-16T22:01:22.680Z,100507.44
2022-12-16T22:04:10.045Z,100504.97
2022-12-16T22:06:55.148Z,100509.22
2022-12-16T22:09:40.364Z,100509.69
2022-12-16T22:12:34.066Z,100519.75
2022-12-16T22:15:20.687Z,100515.91
2022-12-16T22:18:05.796Z,100526.25
2022-12-16T22:20:51.812Z,100525.78
2022-12-16T22:23:37.524Z,100517.03
2022-12-16T22:26:22.769Z,100524.94
2022-12-16T22:29:10.275Z,100522.13
2022-12-16T22:31:56.697Z,100520.13
2022-12-16T22:34:41.768Z,100522.84
2022-12-16T22:37:29.599Z,100514.03
2022-12-16T22:40:15.099Z,100514.97
2022-12-16T22:43:00.348Z,100526.69
2022-12-16T22:45:45.432Z,100530.97
2022-12-16T22:48:31.603Z,100536.22
2022-12-16T22:51:16.616Z,100532.56
2022-12-16T22:54:01.635Z,100532.78
2022-12-16T22:56:46.419Z,100537.75
2022-12-16T22:59:31.221Z,100540.06
2022-12-16T23:02:16.121Z,100528.78
2022-12-16T23:05:02.620Z,100550.59
2022-12-16T23:07:47.711Z,100548.78
2022-12-16T23:10:35.273Z,100555.03
2022-12-16T23:13:20.315Z,100550.97
2022-12-16T23:16:21.915Z,100547.00
2022-12-16T23:19:12.545Z,100559.47
2022-12-16T23:21:59.303Z,100564.28
2022-12-16T23:24:44.434Z,100563.75
2022-12-16T23:27:29.569Z,100567.19
2022-12-16T23:30:14.574Z,100568.59
2022-12-16T23:33:11.202Z,100558.22
2022-12-16T23:35:56.170Z,100561.31
2022-12-16T23:38:42.659Z,100561.53
2022-12-16T23:41:27.974Z,100561.31
2022-12-16T23:44:12.670Z,100564.13
2022-12-16T23:46:57.925Z,100562.84
2022-12-16T23:49:43.136Z,100554.97
2022-12-16T23:52:28.378Z,100565.09
2022-12-16T23:55:15.109Z,100560.59
2022-12-16T23:58:29.572Z,100556.22
